createdAt,value
2019-04-13T00:00:05.928Z,11.30
2019-04-13T00:02:38.075Z,12.50
2019-04-13T00:05:30.745Z,10.60
2019-04-13T00:08:01.681Z,13.37
2019-04-13T00:10:36.782Z,11.60
2019-04-13T00:13:03.556Z,11.93
2019-04-13T00:15:30.521Z,11.57
2019-04-13T00:17:57.334Z,13.50
2019-04-13T00:20:24.401Z,11.73
2019-04-13T00:22:51.173Z,13.10
2019-04-13T00:25:18.046Z,11.63
2019-04-13T00:27:45.316Z,11.70
2019-04-13T00:30:12.324Z,12.47
2019-04-13T00:32:39.113Z,11.63
2019-04-13T00:35:05.992Z,12.73
2019-04-13T00:37:32.781Z,13.47
2019-04-13T00:39:59.948Z,13.63
2019-04-13T00:42:26.918Z,12.80
2019-04-13T00:44:53.710Z,12.47
2019-04-13T00:47:20.515Z,13.40
2019-04-13T00:49:47.285Z,11.87
2019-04-13T00:52:14.189Z,12.00
2019-04-13T00:54:40.985Z,13.40
2019-04-13T00:57:08.261Z,12.47
2019-04-13T00:59:35.167Z,12.40
2019-04-13T01:02:02.195Z,12.07
2019-04-13T01:04:29.023Z,12.77
2019-04-13T01:06:55.905Z,13.30
2019-04-13T01:09:22.709Z,11.90
2019-04-13T01:11:49.595Z,12.73
2019-04-13T01:14:16.575Z,12.37
2019-04-13T01:16:43.371Z,12.57
2019-04-13T01:19:10.357Z,14.57
2019-04-13T01:21:37.400Z,12.53
2019-04-13T01:24:04.391Z,12.33
2019-04-13T01:26:31.527Z,12.90
2019-04-13T01:28:58.506Z,12.80
2019-04-13T01:31:25.380Z,14.90
2019-04-13T01:33:52.261Z,14.47
2019-04-13T01:36:19.380Z,14.30
2019-04-13T01:38:46.433Z,13.97
2019-04-13T01:41:13.205Z,13.43
2019-04-13T01:43:40.175Z,13.80
2019-04-13T01:46:07.213Z,13.43
2019-04-13T01:48:33.981Z,13.63
2019-04-13T01:51:00.985Z,13.40
2019-04-13T01:53:27.773Z,13.90
2019-04-13T01:55:54.553Z,13.03
2019-04-13T01:58:21.338Z,13.87
2019-04-13T02:01:04.574Z,14.30
2019-04-13T02:03:32.151Z,15.03
2019-04-13T02:06:01.585Z,15.60
2019-04-13T02:08:42.850Z,13.67
2019-04-13T02:11:15.475Z,14.50
2019-04-13T02:13:42.247Z,13.10
2019-04-13T02:16:09.314Z,13.20
2019-04-13T02:18:36.215Z,13.73
2019-04-13T02:21:03.522Z,13.40
2019-04-13T02:23:30.529Z,13.57
2019-04-13T02:25:57.330Z,14.33
2019-04-13T02:28:24.658Z,14.20
2019-04-13T02:30:51.543Z,13.47
2019-04-13T02:33:21.522Z,14.23
2019-04-13T02:35:47.762Z,13.40
2019-04-13T02:38:15.132Z,16.63
2019-04-13T02:40:42.391Z,14.77
2019-04-13T02:43:09.660Z,14.13
2019-04-13T02:45:36.862Z,14.70
2019-04-13T02:48:04.061Z,15.60
2019-04-13T02:50:30.933Z,14.43
2019-04-13T02:52:57.697Z,15.20
2019-04-13T02:55:24.691Z,14.30
2019-04-13T02:57:51.441Z,14.50
2019-04-13T03:00:18.754Z,16.40
2019-04-13T03:02:45.709Z,14.83
2019-04-13T03:05:12.589Z,16.13
2019-04-13T03:07:39.568Z,14.47
2019-04-13T03:10:06.565Z,15.03
2019-04-13T03:12:33.897Z,15.67
2019-04-13T03:15:00.987Z,14.50
2019-04-13T03:17:40.877Z,15.60
2019-04-13T03:20:13.461Z,14.23
2019-04-13T03:22:40.664Z,14.07
2019-04-13T03:25:07.653Z,14.73
2019-04-13T03:27:35.216Z,14.77
2019-04-13T03:30:02.683Z,14.93
2019-04-13T03:32:29.439Z,15.60
2019-04-13T03:34:56.336Z,14.67
2019-04-13T03:37:23.566Z,15.53
2019-04-13T03:39:50.905Z,16.10
2019-04-13T03:42:17.702Z,16.20
2019-04-13T03:44:44.623Z,14.90
2019-04-13T03:47:12.223Z,15.77
2019-04-13T03:49:39.226Z,15.90
2019-04-13T03:52:06.120Z,15.50
2019-04-13T03:54:32.889Z,15.53
2019-04-13T03:57:00.135Z,13.90
2019-04-13T03:59:27.121Z,14.87
2019-04-13T04:01:54.019Z,14.93
2019-04-13T04:04:20.870Z,14.33
2019-04-13T04:06:48.170Z,15.90
2019-04-13T04:09:14.925Z,14.47
2019-04-13T04:11:41.694Z,17.07
2019-04-13T04:14:09.014Z,15.57
2019-04-13T04:16:36.189Z,16.90
2019-04-13T04:19:03.149Z,15.97
2019-04-13T04:21:30.274Z,14.80
2019-04-13T04:23:57.050Z,16.80
2019-04-13T04:26:23.945Z,17.43
2019-04-13T04:28:50.734Z,15.73
2019-04-13T04:31:17.823Z,16.30
2019-04-13T04:33:44.589Z,15.33
2019-04-13T04:36:22.844Z,16.33
2019-04-13T04:38:40.153Z,14.73
2019-04-13T04:41:06.941Z,15.77
2019-04-13T04:43:33.700Z,16.57
2019-04-13T04:46:00.940Z,18.23
2019-04-13T04:48:27.822Z,17.77
2019-04-13T04:50:54.601Z,16.80
2019-04-13T04:53:21.609Z,15.83
2019-04-13T04:55:48.357Z,15.30
2019-04-13T04:58:15.252Z,15.63
2019-04-13T05:00:42.220Z,16.03
2019-04-13T05:03:09.012Z,15.67
2019-04-13T05:05:35.813Z,15.83
2019-04-13T05:08:10.872Z,15.37
2019-04-13T05:10:31.825Z,15.97
2019-04-13T05:12:58.726Z,16.07
2019-04-13T05:15:25.747Z,17.07
2019-04-13T05:17:52.977Z,16.60
2019-04-13T05:20:19.985Z,16.53
2019-04-13T05:22:46.765Z,16.63
2019-04-13T05:25:13.801Z,17.10
2019-04-13T05:27:40.588Z,16.90
2019-04-13T05:30:08.544Z,17.33
2019-04-13T05:32:35.470Z,18.10
2019-04-13T05:35:02.496Z,16.73
2019-04-13T05:37:29.270Z,17.00
2019-04-13T05:39:56.501Z,15.87
2019-04-13T05:42:23.609Z,15.80
2019-04-13T05:44:50.526Z,16.37
2019-04-13T05:47:17.525Z,15.93
2019-04-13T05:49:44.509Z,19.57
2019-04-13T05:52:11.761Z,16.13
2019-04-13T05:54:38.902Z,17.27
2019-04-13T05:57:05.692Z,16.07
2019-04-13T05:59:32.481Z,20.50
2019-04-13T06:01:59.541Z,17.80
2019-04-13T06:04:26.753Z,17.13
2019-04-13T06:06:59.889Z,17.10
2019-04-13T06:09:24.832Z,17.33
2019-04-13T06:11:51.353Z,17.30
2019-04-13T06:14:18.229Z,19.07
2019-04-13T06:16:45.085Z,17.23
2019-04-13T06:19:11.852Z,17.73
2019-04-13T06:21:40.676Z,19.70
2019-04-13T06:24:09.249Z,18.00
2019-04-13T06:26:36.429Z,17.67
2019-04-13T06:29:04.981Z,18.55
2019-04-13T06:31:47.224Z,18.27
2019-04-13T06:34:39.985Z,18.42
2019-04-13T06:37:12.044Z,17.75
2019-04-13T06:39:35.785Z,22.45
2019-04-13T06:42:02.754Z,18.27
2019-04-13T06:44:32.158Z,20.97
2019-04-13T06:46:58.505Z,19.27
2019-04-13T06:49:25.854Z,18.62
2019-04-13T06:51:53.085Z,19.30
2019-04-13T06:54:20.204Z,20.32
2019-04-13T06:56:47.401Z,19.73
2019-04-13T06:59:14.949Z,18.87
2019-04-13T07:01:42.213Z,18.17
2019-04-13T07:04:09.125Z,18.62
2019-04-13T07:06:47.181Z,19.17
2019-04-13T07:09:19.871Z,19.50
2019-04-13T07:12:06.785Z,19.60
2019-04-13T07:14:33.720Z,19.73
2019-04-13T07:17:03.764Z,18.67
2019-04-13T07:19:30.633Z,18.27
2019-04-13T07:21:57.573Z,18.55
2019-04-13T07:24:28.401Z,19.40
2019-04-13T07:26:53.364Z,19.35
2019-04-13T07:29:22.204Z,19.50
2019-04-13T07:31:48.830Z,17.95
2019-04-13T07:34:15.909Z,19.48
2019-04-13T07:36:42.959Z,18.73
2019-04-13T07:39:09.813Z,18.87
2019-04-13T07:41:36.612Z,20.20
2019-04-13T07:44:05.481Z,21.02
2019-04-13T07:46:50.540Z,21.47
2019-04-13T07:49:32.738Z,19.55
2019-04-13T07:52:19.394Z,19.87
2019-04-13T07:54:46.891Z,19.42
2019-04-13T07:57:13.926Z,19.02
2019-04-13T07:59:40.850Z,20.85
2019-04-13T08:02:08.289Z,20.30
2019-04-13T08:04:35.045Z,19.67
2019-04-13T08:07:06.157Z,20.32
2019-04-13T08:09:30.845Z,19.73
2019-04-13T08:11:57.608Z,20.25
2019-04-13T08:14:29.714Z,19.00
2019-04-13T08:16:57.228Z,19.15
2019-04-13T08:19:25.873Z,19.45
2019-04-13T08:21:52.920Z,18.45
2019-04-13T08:24:19.946Z,19.55
2019-04-13T08:26:48.909Z,18.45
2019-04-13T08:29:15.637Z,19.32
2019-04-13T08:31:42.651Z,19.42
2019-04-13T08:34:10.005Z,18.32
2019-04-13T08:36:36.930Z,18.52
2019-04-13T08:39:05.754Z,17.92
2019-04-13T08:41:33.146Z,17.67
2019-04-13T08:44:00.118Z,17.60
2019-04-13T08:46:28.266Z,16.42
2019-04-13T08:48:55.617Z,17.75
2019-04-13T08:51:22.416Z,20.92
2019-04-13T08:53:49.282Z,19.12
2019-04-13T08:56:16.195Z,18.52
2019-04-13T08:58:44.486Z,17.17
2019-04-13T09:01:11.825Z,18.15
2019-04-13T09:03:39.276Z,18.45
2019-04-13T09:06:06.936Z,19.20
2019-04-13T09:08:33.986Z,18.12
2019-04-13T09:11:02.097Z,18.42
2019-04-13T09:13:31.276Z,18.20
2019-04-13T09:15:57.859Z,18.07
2019-04-13T09:18:44.365Z,18.32
2019-04-13T09:21:19.164Z,18.65
2019-04-13T09:23:48.712Z,18.67
2019-04-13T09:26:15.732Z,17.52
2019-04-13T09:28:43.392Z,17.15
2019-04-13T09:31:11.037Z,17.73
2019-04-13T09:33:38.210Z,17.45
2019-04-13T09:36:05.167Z,17.32
2019-04-13T09:38:41.601Z,17.42
2019-04-13T09:41:03.371Z,18.45
2019-04-13T09:43:39.757Z,17.77
2019-04-13T09:46:07.066Z,17.40
2019-04-13T09:48:34.133Z,18.27
2019-04-13T09:51:00.923Z,17.02
2019-04-13T09:53:27.792Z,17.65
2019-04-13T09:55:54.983Z,19.02
2019-04-13T09:58:21.777Z,17.67
2019-04-13T10:00:48.537Z,16.25
2019-04-13T10:03:15.417Z,16.93
2019-04-13T10:05:42.287Z,16.75
2019-04-13T10:08:09.089Z,16.57
2019-04-13T10:10:36.154Z,16.80
2019-04-13T10:13:15.137Z,16.67
2019-04-13T10:16:08.449Z,16.48
2019-04-13T10:18:42.053Z,16.65
2019-04-13T10:21:10.657Z,17.10
2019-04-13T10:23:37.901Z,16.02
2019-04-13T10:26:04.777Z,16.00
2019-04-13T10:28:31.709Z,15.63
2019-04-13T10:30:58.693Z,16.55
2019-04-13T10:33:25.762Z,15.55
2019-04-13T10:35:52.629Z,16.17
2019-04-13T10:38:19.644Z,15.63
2019-04-13T10:40:46.534Z,16.05
2019-04-13T10:43:16.533Z,15.55
2019-04-13T10:45:50.901Z,15.72
2019-04-13T10:48:25.441Z,15.60
2019-04-13T10:50:58.854Z,15.63
2019-04-13T10:53:25.779Z,15.15
2019-04-13T10:55:52.936Z,16.50
2019-04-13T10:58:19.713Z,16.35
2019-04-13T11:00:46.740Z,16.48
2019-04-13T11:03:13.536Z,15.45
2019-04-13T11:05:40.542Z,16.62
2019-04-13T11:08:07.435Z,16.40
2019-04-13T11:10:34.872Z,15.45
2019-04-13T11:13:02.401Z,16.05
2019-04-13T11:15:29.412Z,17.02
2019-04-13T11:17:56.479Z,15.28
2019-04-13T11:20:23.370Z,15.83
2019-04-13T11:22:50.234Z,16.07
2019-04-13T11:25:21.591Z,17.07
2019-04-13T11:27:46.005Z,16.62
2019-04-13T11:30:13.204Z,17.02
2019-04-13T11:32:40.465Z,16.02
2019-04-13T11:35:07.432Z,16.40
2019-04-13T11:37:35.392Z,15.72
2019-04-13T11:40:03.962Z,15.03
2019-04-13T11:42:45.025Z,15.70
2019-04-13T11:45:33.720Z,14.90
2019-04-13T11:48:18.397Z,16.62
2019-04-13T11:50:47.810Z,15.13
2019-04-13T11:53:15.540Z,16.45
2019-04-13T11:55:42.594Z,15.32
2019-04-13T11:58:09.992Z,16.27
2019-04-13T12:00:55.341Z,14.87
2019-04-13T12:03:41.910Z,15.05
2019-04-13T12:06:18.160Z,15.65
2019-04-13T12:08:59.307Z,15.72
2019-04-13T12:11:48.689Z,15.85
2019-04-13T12:14:28.185Z,16.20
2019-04-13T12:17:13.590Z,16.40
2019-04-13T12:20:00.327Z,16.90
2019-04-13T12:22:30.613Z,18.67
2019-04-13T12:24:57.372Z,15.35
2019-04-13T12:27:24.305Z,15.40
2019-04-13T12:29:51.474Z,15.98
2019-04-13T12:32:24.232Z,16.07
2019-04-13T12:34:51.772Z,19.45
2019-04-13T12:37:18.821Z,17.62
2019-04-13T12:39:47.620Z,15.23
2019-04-13T12:42:14.501Z,15.70
2019-04-13T12:44:41.468Z,17.12
2019-04-13T12:47:11.734Z,16.82
2019-04-13T12:49:38.782Z,16.95
2019-04-13T12:52:05.969Z,16.60
2019-04-13T12:54:36.840Z,17.65
2019-04-13T12:57:02.066Z,16.23
2019-04-13T12:59:29.433Z,15.95
2019-04-13T13:02:16.013Z,15.45
2019-04-13T13:05:00.786Z,17.32
2019-04-13T13:07:28.087Z,16.02
2019-04-13T13:09:54.884Z,16.17
2019-04-13T13:12:21.711Z,16.90
2019-04-13T13:14:49.217Z,16.30
2019-04-13T13:17:18.355Z,15.15
2019-04-13T13:19:45.815Z,15.45
2019-04-13T13:22:15.512Z,16.10
2019-04-13T13:24:43.364Z,17.35
2019-04-13T13:27:10.635Z,16.70
2019-04-13T13:29:37.709Z,18.95
2019-04-13T13:32:04.675Z,16.02
2019-04-13T13:34:31.461Z,16.82
2019-04-13T13:36:58.344Z,16.57
2019-04-13T13:39:25.330Z,15.88
2019-04-13T13:41:52.193Z,16.20
2019-04-13T13:44:19.952Z,16.67
2019-04-13T13:46:51.224Z,15.65
2019-04-13T13:49:16.390Z,16.02
2019-04-13T13:51:55.272Z,16.40
2019-04-13T13:54:13.781Z,16.50
2019-04-13T13:56:40.732Z,16.50
2019-04-13T13:59:07.649Z,16.50
2019-04-13T14:01:52.809Z,16.55
2019-04-13T14:04:19.986Z,17.20
2019-04-13T14:06:47.666Z,15.08
2019-04-13T14:09:14.812Z,15.58
2019-04-13T14:11:41.797Z,17.05
2019-04-13T14:14:08.949Z,16.87
2019-04-13T14:16:36.283Z,16.15
2019-04-13T14:19:03.426Z,16.65
2019-04-13T14:21:30.440Z,16.50
2019-04-13T14:23:57.563Z,16.52
2019-04-13T14:26:24.316Z,16.23
2019-04-13T14:28:51.117Z,16.65
2019-04-13T14:31:19.407Z,16.45
2019-04-13T14:33:46.361Z,20.45
2019-04-13T14:36:13.376Z,16.60
2019-04-13T14:38:40.277Z,17.00
2019-04-13T14:41:09.956Z,15.93
2019-04-13T14:43:36.913Z,17.37
2019-04-13T14:46:08.704Z,15.85
2019-04-13T14:48:36.429Z,17.17
2019-04-13T14:51:03.649Z,16.70
2019-04-13T14:53:30.650Z,15.80
2019-04-13T14:55:58.174Z,17.10
2019-04-13T14:58:25.266Z,17.50
2019-04-13T15:00:52.417Z,16.77
2019-04-13T15:03:20.087Z,16.35
2019-04-13T15:05:48.263Z,15.90
2019-04-13T15:08:15.676Z,17.12
2019-04-13T15:10:42.942Z,16.17
2019-04-13T15:13:10.113Z,17.27
2019-04-13T15:15:41.710Z,17.50
2019-04-13T15:18:18.698Z,16.90
2019-04-13T15:20:48.184Z,16.10
2019-04-13T15:23:15.290Z,16.12
2019-04-13T15:25:42.415Z,16.70
2019-04-13T15:28:10.676Z,16.50
2019-04-13T15:30:37.915Z,16.73
2019-04-13T15:33:09.583Z,17.15
2019-04-13T15:35:34.707Z,16.10
2019-04-13T15:38:02.528Z,17.10
2019-04-13T15:40:32.908Z,16.73
2019-04-13T15:43:04.862Z,16.90
2019-04-13T15:45:28.932Z,16.80
2019-04-13T15:47:55.840Z,17.35
2019-04-13T15:50:24.030Z,16.90
2019-04-13T15:52:51.150Z,16.82
2019-04-13T15:55:18.736Z,16.15
2019-04-13T15:57:45.663Z,15.88
2019-04-13T16:00:12.716Z,16.25
2019-04-13T16:02:41.062Z,16.12
2019-04-13T16:05:09.365Z,17.05
2019-04-13T16:07:36.777Z,16.32
2019-04-13T16:10:11.481Z,15.83
2019-04-13T16:12:47.197Z,17.50
2019-04-13T16:15:14.365Z,16.48
2019-04-13T16:17:42.273Z,16.35
2019-04-13T16:20:09.764Z,16.60
2019-04-13T16:22:36.959Z,15.98
2019-04-13T16:25:05.353Z,15.70
2019-04-13T16:27:40.166Z,15.85
2019-04-13T16:30:25.839Z,15.83
2019-04-13T16:33:15.266Z,15.60
2019-04-13T16:35:56.459Z,15.18
2019-04-13T16:38:24.268Z,15.72
2019-04-13T16:40:52.144Z,16.50
2019-04-13T16:43:22.309Z,17.20
2019-04-13T16:46:15.753Z,15.83
2019-04-13T16:49:20.455Z,16.07
2019-04-13T16:52:02.872Z,16.65
2019-04-13T16:54:58.030Z,16.17
2019-04-13T16:57:27.544Z,17.10
2019-04-13T17:00:03.797Z,17.67
2019-04-13T17:02:56.851Z,16.00
2019-04-13T17:05:26.810Z,18.07
2019-04-13T17:07:54.837Z,15.33
2019-04-13T17:10:21.995Z,15.10
2019-04-13T17:12:49.431Z,14.90
2019-04-13T17:15:16.932Z,15.63
2019-04-13T17:17:44.975Z,16.87
2019-04-13T17:20:24.765Z,14.67
2019-04-13T17:23:27.279Z,16.03
2019-04-13T17:26:04.392Z,16.80
2019-04-13T17:28:49.671Z,16.33
2019-04-13T17:31:34.985Z,17.33
2019-04-13T17:34:11.250Z,17.67
2019-04-13T17:36:40.424Z,18.57
2019-04-13T17:39:08.747Z,15.57
2019-04-13T17:42:11.897Z,15.50
2019-04-13T17:44:39.934Z,15.90
2019-04-13T17:47:26.495Z,15.77
2019-04-13T17:50:15.894Z,18.20
2019-04-13T17:53:14.348Z,16.23
2019-04-13T17:55:46.205Z,15.27
2019-04-13T17:58:35.198Z,18.23
2019-04-13T18:01:35.243Z,18.87
2019-04-13T18:04:21.016Z,15.17
2019-04-13T18:07:11.471Z,16.00
2019-04-13T18:09:58.365Z,15.93
2019-04-13T18:12:44.940Z,17.57
2019-04-13T18:15:13.762Z,20.30
2019-04-13T18:17:51.623Z,19.03
2019-04-13T18:20:18.501Z,17.07
2019-04-13T18:22:47.530Z,14.67
2019-04-13T18:25:16.291Z,17.40
2019-04-13T18:27:44.109Z,15.67
2019-04-13T18:30:20.265Z,16.00
2019-04-13T18:32:40.735Z,17.47
2019-04-13T18:35:08.441Z,16.27
2019-04-13T18:37:36.428Z,15.57
2019-04-13T18:40:03.905Z,16.60
2019-04-13T18:42:30.817Z,14.67
2019-04-13T18:44:57.735Z,18.00
2019-04-13T18:47:26.378Z,16.53
2019-04-13T18:49:53.896Z,17.77
2019-04-13T18:52:21.742Z,17.00
2019-04-13T18:54:48.912Z,16.63
2019-04-13T18:57:15.919Z,16.90
2019-04-13T18:59:44.137Z,16.47
2019-04-13T19:02:12.506Z,17.70
2019-04-13T19:04:39.744Z,15.70
2019-04-13T19:07:07.353Z,17.00
2019-04-13T19:09:34.305Z,16.47
2019-04-13T19:12:01.681Z,16.73
2019-04-13T19:14:28.485Z,17.10
2019-04-13T19:16:55.374Z,17.33
2019-04-13T19:19:22.974Z,17.33
2019-04-13T19:21:50.088Z,17.97
2019-04-13T19:24:17.304Z,18.60
2019-04-13T19:26:44.503Z,18.30
2019-04-13T19:29:11.812Z,19.43
2019-04-13T19:31:38.786Z,17.00
2019-04-13T19:34:06.009Z,20.07
2019-04-13T19:36:33.029Z,18.53
2019-04-13T19:39:00.259Z,19.70
2019-04-13T19:41:27.144Z,16.80
2019-04-13T19:43:54.550Z,15.80
2019-04-13T19:46:21.624Z,17.20
2019-04-13T19:48:48.853Z,15.53
2019-04-13T19:51:17.878Z,19.03
2019-04-13T19:53:52.074Z,16.07
2019-04-13T19:56:21.485Z,16.70
2019-04-13T19:58:48.290Z,17.07
2019-04-13T20:01:19.850Z,15.97
2019-04-13T20:03:46.888Z,15.77
2019-04-13T20:06:19.009Z,17.17
2019-04-13T20:08:42.719Z,17.43
2019-04-13T20:11:09.502Z,18.00
2019-04-13T20:13:45.382Z,18.43
2019-04-13T20:16:06.093Z,18.97
2019-04-13T20:18:34.832Z,16.90
2019-04-13T20:21:02.585Z,18.90
2019-04-13T20:23:29.364Z,17.37
2019-04-13T20:25:56.848Z,19.80
2019-04-13T20:28:24.384Z,20.10
2019-04-13T20:30:55.001Z,18.77
2019-04-13T20:33:20.591Z,17.63
2019-04-13T20:35:57.773Z,22.27
2019-04-13T20:38:17.132Z,22.60
2019-04-13T20:41:17.127Z,19.10
2019-04-13T20:43:56.736Z,20.37
2019-04-13T20:46:14.971Z,18.53
2019-04-13T20:48:42.460Z,17.90
2019-04-13T20:51:10.388Z,19.57
2019-04-13T20:53:37.421Z,19.20
2019-04-13T20:56:05.469Z,22.10
2019-04-13T20:58:33.626Z,18.67
2019-04-13T21:01:01.642Z,22.33
2019-04-13T21:03:29.465Z,17.83
2019-04-13T21:05:57.596Z,21.17
2019-04-13T21:08:25.783Z,21.70
2019-04-13T21:10:52.857Z,21.87
2019-04-13T21:13:19.630Z,20.23
2019-04-13T21:15:46.713Z,20.70
2019-04-13T21:18:14.585Z,19.33
2019-04-13T21:20:44.370Z,18.83
2019-04-13T21:23:10.892Z,18.80
2019-04-13T21:25:37.993Z,20.43
2019-04-13T21:28:05.979Z,19.07
2019-04-13T21:30:33.961Z,20.73
2019-04-13T21:33:01.922Z,21.43
2019-04-13T21:35:29.516Z,19.50
2019-04-13T21:37:57.315Z,19.43
2019-04-13T21:40:25.263Z,18.97
2019-04-13T21:42:53.342Z,18.33
2019-04-13T21:45:21.053Z,19.80
2019-04-13T21:47:49.209Z,20.30
2019-04-13T21:50:26.129Z,20.27
2019-04-13T21:52:56.781Z,26.77
2019-04-13T21:55:33.239Z,36.03
2019-04-13T21:58:01.186Z,50.87
2019-04-13T22:00:57.540Z,24.23
2019-04-13T22:03:25.160Z,22.60
2019-04-13T22:05:52.882Z,22.60
2019-04-13T22:08:20.953Z,23.00
2019-04-13T22:10:48.685Z,24.23
2019-04-13T22:13:16.388Z,23.83
2019-04-13T22:15:44.109Z,22.17
2019-04-13T22:18:11.177Z,24.23
2019-04-13T22:20:39.238Z,24.67
2019-04-13T22:23:06.514Z,24.03
2019-04-13T22:25:34.202Z,22.23
2019-04-13T22:28:06.273Z,23.90
2019-04-13T22:30:34.104Z,23.07
2019-04-13T22:33:02.423Z,21.70
2019-04-13T22:35:56.352Z,20.70
2019-04-13T22:38:24.031Z,25.33
2019-04-13T22:40:51.707Z,22.67
2019-04-13T22:43:19.538Z,22.23
2019-04-13T22:45:47.239Z,24.53
2019-04-13T22:48:26.819Z,22.77
2019-04-13T22:51:20.533Z,29.93
2019-04-13T22:54:16.756Z,27.03
2019-04-13T22:56:52.796Z,27.80
2019-04-13T22:59:20.590Z,26.20
2019-04-13T23:01:57.337Z,28.53
2019-04-13T23:04:25.499Z,31.20
2019-04-13T23:06:53.131Z,26.00
2019-04-13T23:09:21.308Z,25.47
2019-04-13T23:11:49.535Z,23.53
2019-04-13T23:14:17.646Z,23.50
2019-04-13T23:16:45.515Z,21.40
2019-04-13T23:19:13.227Z,23.03
2019-04-13T23:21:40.181Z,24.67
2019-04-13T23:24:07.981Z,24.17
2019-04-13T23:26:36.159Z,22.17
2019-04-13T23:29:04.214Z,23.97
2019-04-13T23:31:32.461Z,21.43
2019-04-13T23:34:00.608Z,22.87
2019-04-13T23:36:28.955Z,21.47
2019-04-13T23:38:57.261Z,25.93
2019-04-13T23:41:25.363Z,21.57
2019-04-13T23:43:52.357Z,21.77
2019-04-13T23:46:19.884Z,21.27
2019-04-13T23:48:46.853Z,20.87
2019-04-13T23:51:14.261Z,22.63
2019-04-13T23:53:42.327Z,29.33
2019-04-13T23:56:19.478Z,24.30
2019-04-13T23:59:00.310Z,27.13
